Time;durP1;ratioP1;P1;durP2;ratioP2;P2;SDS_P1;SDS_P2;PMS_P1;PMS_P2;Temp;Humidity;BMP_temperature;BMP_pressure;BME280_temperature;BME280_humidity;BME280_pressure;Samples;Min_cycle;Max_cycle;Signal;HPM_P1;HPM_P2
2023/03/31 00:00:53;;;;;;;9.13;2.70;;;;;;;10.02;90.39;100288.06;5065503;28;20816;-77
2023/03/31 00:03:23;;;;;;;9.45;2.97;;;;;;;10.08;90.38;100289.63;5065360;28;20052;-76
2023/03/31 00:05:57;;;;;;;7.38;3.08;;;;;;;10.15;90.47;100279.72;5065292;28;20056;-77
2023/03/31 00:08:34;;;;;;;7.57;2.47;;;;;;;10.20;90.34;100280.41;5064327;28;20041;-76
2023/03/31 00:11:06;;;;;;;6.18;2.28;;;;;;;10.28;90.63;100274.84;5064994;28;20045;-77
2023/03/31 00:13:35;;;;;;;8.25;2.10;;;;;;;10.33;90.55;100262.34;5066059;28;20103;-77
2023/03/31 00:16:07;;;;;;;6.95;2.25;;;;;;;10.38;90.56;100249.91;5066424;28;20123;-78
2023/03/31 00:18:36;;;;;;;7.35;1.73;;;;;;;10.40;90.64;100245.44;5063564;28;20041;-78
2023/03/31 00:21:23;;;;;;;4.90;1.70;;;;;;;10.43;90.87;100247.91;5064986;28;20067;-77
2023/03/31 00:23:59;;;;;;;4.97;2.03;;;;;;;10.43;91.00;100237.38;5065526;28;20084;-78
2023/03/31 00:26:28;;;;;;;6.43;1.70;;;;;;;10.43;91.25;100240.03;5066055;28;20033;-77
2023/03/31 00:28:56;;;;;;;7.07;2.08;;;;;;;10.44;91.41;100238.25;5061874;28;20045;-75
2023/03/31 00:31:25;;;;;;;6.78;1.60;;;;;;;10.44;91.30;100236.47;5056346;28;20195;-77
2023/03/31 00:33:54;;;;;;;7.35;1.77;;;;;;;10.46;91.52;100228.53;5066250;28;20041;-75
2023/03/31 00:36:28;;;;;;;6.32;1.88;;;;;;;10.48;91.45;100238.06;5061872;28;20704;-75
2023/03/31 00:39:01;;;;;;;7.13;2.13;;;;;;;10.48;91.65;100224.06;5063924;28;20040;-75
2023/03/31 00:41:29;;;;;;;8.88;2.13;;;;;;;10.52;91.52;100229.13;5055303;28;20057;-75
2023/03/31 00:44:13;;;;;;;6.10;1.95;;;;;;;10.58;91.41;100217.50;5065160;28;20041;-76
2023/03/31 00:46:57;;;;;;;9.75;2.13;;;;;;;10.59;91.58;100211.28;5073179;28;20145;-77
2023/03/31 00:49:32;;;;;;;7.55;1.70;;;;;;;10.59;91.70;100207.78;5065474;28;20048;-76
2023/03/31 00:52:22;;;;;;;7.80;1.95;;;;;;;10.54;91.50;100207.97;5065998;28;20044;-76
2023/03/31 00:55:01;;;;;;;11.00;2.42;;;;;;;10.56;91.77;100203.50;5066136;28;20064;-76
2023/03/31 00:57:35;;;;;;;8.73;1.98;;;;;;;10.54;91.89;100181.63;5065863;28;20037;-76
2023/03/31 01:00:15;;;;;;;7.35;1.73;;;;;;;10.51;92.19;100174.72;5080933;28;20037;-76
2023/03/31 01:02:56;;;;;;;5.15;1.73;;;;;;;10.49;92.21;100166.00;5065581;28;20040;-75
2023/03/31 01:05:35;;;;;;;9.38;2.20;;;;;;;10.46;92.50;100160.00;5063481;28;20060;-75
2023/03/31 01:08:05;;;;;;;11.85;1.95;;;;;;;10.44;92.69;100151.31;5065171;28;20041;-75
2023/03/31 01:10:40;;;;;;;6.68;1.65;;;;;;;10.40;92.90;100146.16;5065523;28;20091;-76
2023/03/31 01:13:15;;;;;;;8.32;1.90;;;;;;;10.37;92.76;100143.66;5065048;28;20034;-76
2023/03/31 01:15:43;;;;;;;8.63;1.70;;;;;;;10.35;92.96;100134.91;5065659;28;20041;-76
2023/03/31 01:18:13;;;;;;;10.60;2.55;;;;;;;10.34;92.95;100133.19;5065019;28;20041;-76
2023/03/31 01:20:52;;;;;;;8.32;1.95;;;;;;;10.33;93.17;100131.47;5064576;28;20041;-76
2023/03/31 01:24:00;;;;;;;7.22;1.50;;;;;;;10.32;93.43;100128.91;5058682;28;20049;-76
2023/03/31 01:26:52;;;;;;;12.38;1.95;;;;;;;10.31;93.65;100119.31;5064817;28;20195;-76
2023/03/31 01:29:41;;;;;;;10.80;1.95;;;;;;;10.31;93.83;100121.94;5063060;28;20052;-76
2023/03/31 01:32:40;;;;;;;6.72;1.98;;;;;;;10.30;93.96;100112.31;5064620;28;20041;-78
2023/03/31 01:35:50;;;;;;;8.38;2.03;;;;;;;10.29;94.16;100105.31;5062241;28;20185;-77
2023/03/31 01:38:56;;;;;;;5.63;2.20;;;;;;;10.28;94.27;100098.34;5058914;28;20084;-76
2023/03/31 01:41:46;;;;;;;7.43;1.95;;;;;;;10.26;94.38;100085.25;5062863;28;20053;-76
2023/03/31 01:44:34;;;;;;;6.35;1.60;;;;;;;10.28;94.58;100085.16;5057853;28;20037;-76
2023/03/31 01:47:17;;;;;;;7.15;1.65;;;;;;;10.24;94.82;100079.16;5059533;28;22071;-76
2023/03/31 01:50:07;;;;;;;10.02;1.88;;;;;;;10.25;94.90;100071.19;5068328;28;20065;-77
2023/03/31 01:52:48;;;;;;;8.15;1.42;;;;;;;10.23;94.92;100073.03;5068432;28;20049;-77
2023/03/31 01:55:28;;;;;;;9.48;1.80;;;;;;;10.25;94.81;100065.09;5068757;28;20116;-77
2023/03/31 01:58:15;;;;;;;6.57;1.52;;;;;;;10.25;94.80;100070.34;5065788;28;20041;-77
2023/03/31 02:01:00;;;;;;;9.85;1.83;;;;;;;10.26;94.89;100061.53;5065193;28;20131;-78
2023/03/31 02:03:36;;;;;;;8.57;1.60;;;;;;;10.25;94.96;100055.38;5066269;28;22509;-78
2023/03/31 02:06:18;;;;;;;6.80;1.65;;;;;;;10.28;94.90;100046.50;5067067;28;20099;-77
2023/03/31 02:08:55;;;;;;;6.47;1.50;;;;;;;10.31;95.07;100042.91;5068994;28;20052;-78
2023/03/31 02:11:27;;;;;;;10.13;1.73;;;;;;;10.33;95.08;100036.63;5066155;28;20456;-77
2023/03/31 02:14:01;;;;;;;10.02;1.73;;;;;;;10.35;94.99;100029.53;5066938;28;20045;-78
2023/03/31 02:16:36;;;;;;;9.18;1.63;;;;;;;10.38;94.91;100023.28;5067086;28;20049;-77
2023/03/31 02:19:07;;;;;;;8.13;1.65;;;;;;;10.39;94.94;100011.84;5081339;28;20037;-77
2023/03/31 02:21:39;;;;;;;12.52;2.55;;;;;;;10.41;95.03;100010.00;5065831;28;20052;-79
2023/03/31 02:24:13;;;;;;;12.70;2.30;;;;;;;10.41;95.04;99989.75;5066686;28;20045;-78
2023/03/31 02:26:46;;;;;;;;;;;;;;;10.41;95.09;99989.75;5069480;28;20048;-79
2023/03/31 02:29:13;;;;;;;10.18;2.33;;;;;;;10.41;94.97;99984.50;5068854;28;19924;-77
2023/03/31 02:32:04;;;;;;;10.57;1.92;;;;;;;10.43;95.05;99973.03;5065195;28;20033;-76
2023/03/31 02:34:31;;;;;;;12.27;2.33;;;;;;;10.44;95.19;99969.47;5064655;28;20124;-77
2023/03/31 02:36:58;;;;;;;8.88;2.00;;;;;;;10.44;95.12;99961.56;5065061;28;20464;-78
2023/03/31 02:39:33;;;;;;;11.35;1.95;;;;;;;10.45;95.41;99958.03;5068300;28;20045;-78
2023/03/31 02:42:05;;;;;;;11.10;1.98;;;;;;;10.44;95.42;99937.88;5066442;28;20045;-79
2023/03/31 02:44:35;;;;;;;10.25;1.98;;;;;;;10.43;95.26;99931.72;5071037;28;20075;-79
2023/03/31 02:47:08;;;;;;;11.57;2.00;;;;;;;10.43;95.40;99925.59;5072607;28;20420;-80
2023/03/31 02:49:40;;;;;;;12.45;2.22;;;;;;;10.43;95.55;99913.28;5069147;28;20136;-78
2023/03/31 02:52:22;;;;;;;9.27;2.30;;;;;;;10.43;95.32;99908.00;5072246;28;20107;-77
2023/03/31 02:55:45;;;;;;;8.32;2.20;;;;;;;10.44;95.61;99896.53;5077313;28;20093;-77
2023/03/31 02:58:33;;;;;;;13.35;2.50;;;;;;;10.41;95.32;99901.97;5057447;28;20134;-77
2023/03/31 03:01:42;;;;;;;12.38;2.20;;;;;;;10.41;95.75;99894.06;5064136;28;20057;-77
2023/03/31 03:04:42;;;;;;;11.57;2.35;;;;;;;10.41;95.73;99868.56;5065833;28;20053;-76
2023/03/31 03:07:29;;;;;;;14.98;2.33;;;;;;;10.39;95.90;99859.03;5057730;28;20045;-75
2023/03/31 03:10:10;;;;;;;12.45;2.17;;;;;;;10.37;96.25;99863.47;5064893;28;20280;-77
2023/03/31 03:13:20;;;;;;;11.43;2.45;;;;;;;10.34;96.30;99851.31;5072673;28;20104;-76
2023/03/31 03:15:57;;;;;;;8.93;2.10;;;;;;;10.32;96.42;99842.59;5068008;28;20071;-77
2023/03/31 03:18:24;;;;;;;13.75;2.45;;;;;;;10.32;96.45;99839.97;5066457;28;20037;-77
2023/03/31 03:20:52;;;;;;;17.92;2.65;;;;;;;10.31;96.45;99827.72;5067391;28;20106;-76
2023/03/31 03:23:19;;;;;;;11.63;2.70;;;;;;;10.32;96.62;99820.69;5066291;28;20797;-76
2023/03/31 03:25:46;;;;;;;14.27;2.40;;;;;;;10.29;96.38;99813.75;5066962;28;20089;-76
2023/03/31 03:28:13;;;;;;;14.90;2.50;;;;;;;10.29;96.72;99813.75;5066593;28;20041;-76
2023/03/31 03:30:40;;;;;;;17.90;2.97;;;;;;;10.27;96.88;99807.72;5066799;28;20041;-76
2023/03/31 03:33:08;;;;;;;16.10;2.97;;;;;;;10.26;96.97;99801.59;5066544;28;20037;-77
2023/03/31 03:35:35;;;;;;;14.85;2.75;;;;;;;10.25;97.14;99780.59;5066701;28;20124;-77
2023/03/31 03:38:02;;;;;;;12.98;2.17;;;;;;;10.26;97.25;99777.03;5065938;28;20793;-77
2023/03/31 03:40:29;;;;;;;14.90;2.40;;;;;;;10.25;97.30;99786.69;5065380;28;20047;-77
2023/03/31 03:42:56;;;;;;;11.57;2.42;;;;;;;10.25;97.38;99791.13;5057392;28;20063;-77
2023/03/31 03:45:23;;;;;;;13.90;2.25;;;;;;;10.25;97.55;99791.97;5064990;28;20041;-77
2023/03/31 03:47:50;;;;;;;17.77;2.88;;;;;;;10.25;97.40;99789.34;5066980;28;20041;-77
2023/03/31 03:50:18;;;;;;;11.02;2.05;;;;;;;10.25;97.30;99784.06;5066371;28;20067;-76
2023/03/31 03:52:45;;;;;;;15.80;2.42;;;;;;;10.26;97.45;99790.22;5054800;28;20041;-76
2023/03/31 03:55:12;;;;;;;10.82;2.30;;;;;;;10.27;97.34;99786.66;5061050;28;20040;-77
2023/03/31 03:57:39;;;;;;;11.77;2.05;;;;;;;10.27;97.48;99781.38;5064041;28;20072;-76
2023/03/31 04:00:11;;;;;;;13.20;2.20;;;;;;;10.27;97.53;99776.13;5066870;28;20104;-78
2023/03/31 04:02:38;;;;;;;12.18;2.53;;;;;;;10.28;97.55;99771.69;5066303;28;20040;-77
2023/03/31 04:05:06;;;;;;;16.40;2.70;;;;;;;10.28;97.51;99769.06;5065025;28;20041;-76
2023/03/31 04:07:33;;;;;;;16.90;2.78;;;;;;;10.27;97.58;99747.13;5066696;28;20048;-76
2023/03/31 04:10:00;;;;;;;9.48;2.20;;;;;;;10.25;97.46;99739.28;5062769;28;20921;-76
2023/03/31 04:12:27;;;;;;;14.05;2.30;;;;;;;10.24;97.42;99734.94;5063349;28;20045;-76
2023/03/31 04:14:54;;;;;;;11.00;2.20;;;;;;;10.22;97.61;99733.31;5063262;28;20747;-76
2023/03/31 04:17:31;;;;;;;12.05;2.10;;;;;;;10.20;97.67;99729.88;5063584;28;20044;-76
2023/03/31 04:20:01;;;;;;;15.38;2.65;;;;;;;10.19;97.78;99736.09;5065311;28;20498;-73
2023/03/31 04:22:33;;;;;;;12.73;2.65;;;;;;;10.16;97.96;99708.13;5064834;28;20148;-75
2023/03/31 04:25:03;;;;;;;15.95;2.35;;;;;;;10.15;98.14;99697.66;5064747;28;20060;-74
2023/03/31 04:27:32;;;;;;;15.20;2.20;;;;;;;10.11;98.21;99678.53;5053254;28;20081;-75
2023/03/31 04:29:59;;;;;;;11.73;2.70;;;;;;;10.10;98.35;99679.44;5054164;28;20049;-75
2023/03/31 04:32:27;;;;;;;13.32;2.40;;;;;;;10.07;98.51;99661.97;5061373;28;20048;-76
2023/03/31 04:35:02;;;;;;;10.75;2.00;;;;;;;10.06;98.59;99665.56;5063514;28;20056;-75
2023/03/31 04:37:33;;;;;;;15.07;2.45;;;;;;;10.04;98.78;99659.53;5062078;28;20045;-76
2023/03/31 04:40:06;;;;;;;14.15;2.20;;;;;;;10.05;98.92;99652.47;5069475;28;20046;-79
2023/03/31 04:42:34;;;;;;;11.73;2.45;;;;;;;10.07;99.03;99653.25;5078980;28;20100;-78
2023/03/31 04:45:02;;;;;;;10.15;2.15;;;;;;;10.07;98.94;99638.28;5068951;28;20496;-77
2023/03/31 04:47:30;;;;;;;12.18;2.80;;;;;;;10.08;99.05;99631.25;5068271;28;20045;-77
2023/03/31 04:49:57;;;;;;;12.02;2.50;;;;;;;10.12;99.01;99629.31;5064860;28;20052;-78
2023/03/31 04:52:24;;;;;;;12.77;2.67;;;;;;;10.13;99.17;99623.13;5067861;28;20052;-78
2023/03/31 04:54:52;;;;;;;12.55;2.45;;;;;;;10.14;99.04;99617.78;5068583;28;20131;-79
2023/03/31 04:57:19;;;;;;;9.27;2.28;;;;;;;10.23;99.83;99614.72;5068186;28;20056;-79
2023/03/31 04:59:46;;;;;;;8.20;2.22;;;;;;;10.32;99.63;99607.31;5068396;28;20120;-79
2023/03/31 05:02:20;;;;;;;16.33;2.33;;;;;;;10.44;99.99;99605.88;5072163;28;20033;-78
2023/03/31 05:04:51;;;;;;;8.75;1.98;;;;;;;10.54;99.49;99604.50;5063485;28;20068;-79
2023/03/31 05:07:18;;;;;;;10.77;2.08;;;;;;;10.57;99.04;99599.91;5072971;28;20124;-79
2023/03/31 05:09:45;;;;;;;12.02;2.33;;;;;;;10.56;98.28;99595.56;5072226;28;20099;-80
2023/03/31 05:12:12;;;;;;;9.07;1.90;;;;;;;10.56;98.03;99592.94;5079459;28;20131;-77
2023/03/31 05:14:39;;;;;;;12.30;2.10;;;;;;;10.56;97.80;99579.75;5074319;28;20079;-77
2023/03/31 05:17:06;;;;;;;7.75;1.98;;;;;;;10.56;97.63;99579.75;5077780;28;20049;-77
2023/03/31 05:19:33;;;;;;;12.43;1.80;;;;;;;10.56;97.36;99581.56;5083439;28;20052;-78
2023/03/31 05:22:01;;;;;;;9.43;2.20;;;;;;;10.53;97.41;99571.16;5083960;28;20571;-77
2023/03/31 05:24:28;;;;;;;11.27;1.95;;;;;;;10.49;97.14;99565.19;5063848;28;20053;-77
2023/03/31 05:26:56;;;;;;;14.63;2.85;;;;;;;10.44;97.31;99561.09;5068665;28;20049;-77
2023/03/31 05:29:24;;;;;;;10.35;2.20;;;;;;;10.39;97.29;99562.16;5075071;28;20072;-76
2023/03/31 05:31:52;;;;;;;8.27;2.03;;;;;;;10.34;97.32;99550.09;5077361;28;20052;-76
2023/03/31 05:34:20;;;;;;;9.88;2.00;;;;;;;10.31;97.31;99556.38;5078670;28;20041;-77
2023/03/31 05:36:49;;;;;;;7.43;1.98;;;;;;;10.28;97.53;99553.06;5065976;28;20572;-77
2023/03/31 05:39:17;;;;;;;6.50;1.73;;;;;;;10.25;97.61;99546.16;5064670;28;20072;-77
2023/03/31 05:41:44;;;;;;;7.53;1.80;;;;;;;10.23;97.61;99546.22;5069801;28;20056;-78
2023/03/31 05:44:11;;;;;;;8.80;1.83;;;;;;;10.22;97.40;99536.66;5055930;28;20080;-77
2023/03/31 05:46:38;;;;;;;6.50;1.55;;;;;;;10.20;97.55;99532.34;5060567;28;20037;-78
2023/03/31 05:49:06;;;;;;;6.97;1.67;;;;;;;10.17;97.45;99527.25;5070132;28;20036;-77
2023/03/31 05:51:33;;;;;;;6.47;1.80;;;;;;;10.16;97.46;99517.66;5069212;28;20059;-78
2023/03/31 05:54:00;;;;;;;8.95;1.73;;;;;;;10.14;97.51;99519.50;5068642;28;20044;-78
2023/03/31 05:56:27;;;;;;;10.27;1.98;;;;;;;10.13;97.44;99508.09;5068788;28;20072;-78
2023/03/31 05:58:54;;;;;;;7.63;1.48;;;;;;;10.13;97.30;99509.91;5067609;28;20052;-78
2023/03/31 06:01:22;;;;;;;6.03;1.38;;;;;;;10.12;97.44;99510.81;5072996;28;20132;-77
2023/03/31 06:03:50;;;;;;;8.13;1.45;;;;;;;10.13;97.40;99508.09;5065765;28;20049;-78
2023/03/31 06:06:17;;;;;;;6.20;1.60;;;;;;;10.14;97.52;99511.59;5068300;28;20147;-78
2023/03/31 06:08:46;;;;;;;7.78;1.65;;;;;;;10.14;97.52;99495.81;5079156;28;20133;-78
2023/03/31 06:11:18;;;;;;;4.97;1.65;;;;;;;10.14;97.38;99501.91;5068483;28;20048;-76
2023/03/31 06:13:47;;;;;;;7.00;1.95;;;;;;;10.15;97.57;99503.63;5066617;28;20785;-76
2023/03/31 06:16:16;;;;;;;8.02;1.52;;;;;;;10.15;97.62;99498.34;5066240;28;20056;-76
2023/03/31 06:18:44;;;;;;;9.50;1.92;;;;;;;10.19;97.50;99501.69;5065297;28;20041;-77
2023/03/31 06:21:15;;;;;;;9.18;1.55;;;;;;;10.24;97.58;99497.88;5069228;28;20493;-76
2023/03/31 06:23:44;;;;;;;8.18;1.73;;;;;;;10.24;97.43;99492.63;5069635;28;20048;-78
2023/03/31 06:26:15;;;;;;;6.03;1.77;;;;;;;10.28;97.49;99492.47;5068142;28;20104;-77
2023/03/31 06:28:43;;;;;;;5.50;2.20;;;;;;;10.26;97.68;99488.13;5067162;28;20074;-77
2023/03/31 06:31:15;;;;;;;8.25;1.75;;;;;;;10.28;97.45;99482.78;5068262;28;20037;-77
2023/03/31 06:33:43;;;;;;;7.57;1.90;;;;;;;10.28;97.63;99482.78;5066814;28;20063;-76
2023/03/31 06:36:14;;;;;;;6.60;2.15;;;;;;;10.31;97.76;99484.44;5068758;28;20041;-76
2023/03/31 06:38:41;;;;;;;4.65;1.58;;;;;;;10.31;97.74;99469.47;5068263;28;20132;-75
2023/03/31 06:41:12;;;;;;;9.70;2.33;;;;;;;10.31;97.50;99476.53;5068440;28;20095;-75
2023/03/31 06:43:40;;;;;;;7.40;1.63;;;;;;;10.29;97.67;99471.31;5069700;28;20482;-75
2023/03/31 06:46:07;;;;;;;7.47;1.50;;;;;;;10.30;97.74;99469.56;5088621;28;20041;-76
2023/03/31 06:48:35;;;;;;;9.43;1.90;;;;;;;10.30;97.82;99464.28;5088862;28;20045;-75
2023/03/31 06:51:06;;;;;;;8.10;2.75;;;;;;;10.29;97.85;99471.31;5088220;28;20135;-75
2023/03/31 06:53:34;;;;;;;9.50;1.90;;;;;;;10.24;97.67;99455.75;5089207;28;20060;-75
2023/03/31 06:56:03;;;;;;;9.10;1.75;;;;;;;10.21;97.95;99460.31;5077216;28;20432;-75
2023/03/31 06:58:31;;;;;;;9.85;2.33;;;;;;;10.20;98.13;99450.72;5067710;28;20457;-75
2023/03/31 07:01:02;;;;;;;5.50;1.60;;;;;;;10.17;98.22;99446.47;5068572;28;20043;-75
2023/03/31 07:03:31;;;;;;;6.18;1.60;;;;;;;10.17;98.56;99443.84;5068852;28;20044;-74
2023/03/31 07:05:59;;;;;;;10.68;2.25;;;;;;;10.17;98.37;99435.94;5067828;28;20041;-75
2023/03/31 07:08:26;;;;;;;7.88;2.13;;;;;;;10.18;98.39;99452.56;5068398;28;20045;-75
2023/03/31 07:10:57;;;;;;;9.05;1.92;;;;;;;10.18;98.38;99429.75;5068353;28;20052;-76
2023/03/31 07:13:26;;;;;;;6.85;1.60;;;;;;;10.18;98.40;99432.38;5068302;28;20552;-75
2023/03/31 07:15:54;;;;;;;6.85;1.83;;;;;;;10.18;98.10;99421.84;5068348;28;20473;-76
2023/03/31 07:18:31;;;;;;;8.98;1.77;;;;;;;10.21;98.34;99429.59;5077019;28;20041;-75
2023/03/31 07:21:02;;;;;;;6.07;1.90;;;;;;;10.24;98.39;99410.13;5088427;28;20047;-76
2023/03/31 07:23:34;;;;;;;10.68;3.72;;;;;;;10.28;98.63;99421.34;5088162;28;20103;-75
2023/03/31 07:26:01;;;;;;;6.50;1.90;;;;;;;10.32;98.63;99417.66;5077033;28;20033;-75
2023/03/31 07:28:29;;;;;;;5.35;1.80;;;;;;;10.36;98.44;99413.91;5068064;28;20045;-75
2023/03/31 07:30:56;;;;;;;6.30;1.73;;;;;;;10.37;98.35;99413.88;5066973;28;20064;-76
2023/03/31 07:33:23;;;;;;;5.65;1.88;;;;;;;10.37;98.54;99413.88;5078280;28;20045;-75
2023/03/31 07:35:50;;;;;;;5.30;1.73;;;;;;;10.37;98.68;99427.06;5067840;28;20052;-75
2023/03/31 07:38:36;;;;;;;8.48;1.80;;;;;;;10.38;98.57;99420.81;5067667;28;20096;-75
2023/03/31 07:41:03;;;;;;;6.53;1.50;;;;;;;10.38;98.69;99422.63;5068053;28;20109;-76
2023/03/31 07:43:36;;;;;;;7.45;2.47;;;;;;;10.39;98.62;99421.69;5066948;28;20041;-74
2023/03/31 07:46:04;;;;;;;8.18;1.80;;;;;;;10.41;98.73;99425.09;5067506;28;20033;-74
2023/03/31 07:48:32;;;;;;;10.60;2.25;;;;;;;10.43;98.74;99420.56;5082948;28;20080;-76
2023/03/31 07:51:00;;;;;;;9.70;2.38;;;;;;;10.47;98.67;99418.66;5087783;28;20064;-74
2023/03/31 07:53:33;;;;;;;8.70;2.30;;;;;;;10.49;99.01;99420.28;5085421;28;20041;-75
2023/03/31 07:56:00;;;;;;;8.82;2.22;;;;;;;10.58;98.97;99434.75;5060336;28;20056;-76
2023/03/31 07:58:27;;;;;;;9.63;2.10;;;;;;;10.65;98.84;99428.22;5069861;28;20047;-74
2023/03/31 08:00:55;;;;;;;11.02;2.40;;;;;;;10.75;98.59;99419.81;5063845;28;20040;-76
2023/03/31 08:03:22;;;;;;;11.00;2.05;;;;;;;10.82;98.54;99419.41;5067222;28;20045;-76
2023/03/31 08:05:53;;;;;;;7.70;2.15;;;;;;;10.94;98.36;99415.25;5067925;28;20095;-75
2023/03/31 08:08:21;;;;;;;11.20;2.70;;;;;;;11.02;98.36;99407.78;5067697;28;20521;-76
2023/03/31 08:10:48;;;;;;;13.07;2.33;;;;;;;11.10;98.36;99401.22;5066638;28;20049;-75
2023/03/31 08:13:15;;;;;;;11.63;2.30;;;;;;;11.13;98.08;99401.91;5066693;28;20069;-76
2023/03/31 08:15:43;;;;;;;7.45;1.77;;;;;;;11.15;97.61;99396.53;5067199;28;20129;-76
2023/03/31 08:18:10;;;;;;;12.40;1.75;;;;;;;11.15;97.46;99402.66;5066583;28;20164;-76
2023/03/31 08:20:38;;;;;;;8.23;1.60;;;;;;;11.16;97.02;99390.34;5067166;28;20041;-75
2023/03/31 08:23:07;;;;;;;5.25;0.93;;;;;;;11.16;96.55;99391.19;5063790;28;20044;-77
2023/03/31 08:25:34;;;;;;;5.72;1.00;;;;;;;11.16;96.32;99388.53;5066543;28;20145;-76
2023/03/31 08:28:02;;;;;;;4.80;0.90;;;;;;;11.17;95.92;99384.97;5066583;28;20049;-76
2023/03/31 08:30:29;;;;;;;9.07;1.10;;;;;;;11.21;95.88;99388.28;5065456;28;20075;-76
2023/03/31 08:32:56;;;;;;;5.00;1.10;;;;;;;11.28;95.79;99380.88;5064075;28;20041;-76
2023/03/31 08:35:23;;;;;;;5.00;1.35;;;;;;;11.41;95.63;99379.25;5066347;28;20045;-77
2023/03/31 08:37:50;;;;;;;3.90;1.50;;;;;;;11.57;95.19;99367.78;5087723;28;20440;-78
2023/03/31 08:40:26;;;;;;;5.65;1.15;;;;;;;11.76;95.11;99375.50;5088416;28;20529;-78
2023/03/31 08:43:05;;;;;;;4.75;1.33;;;;;;;11.98;94.85;99371.63;5081930;28;20064;-78
2023/03/31 08:45:37;;;;;;;9.95;1.50;;;;;;;12.12;94.41;99371.63;5065673;28;20064;-78
2023/03/31 08:48:24;;;;;;;6.68;1.77;;;;;;;12.23;93.59;99366.56;5069536;28;20037;-77
2023/03/31 08:51:00;;;;;;;10.60;1.92;;;;;;;12.36;93.71;99371.09;5064878;28;20128;-78
2023/03/31 08:54:31;;;;;;;7.18;1.70;;;;;;;12.56;93.26;99362.78;5066886;28;20631;-77
2023/03/31 08:57:00;;;;;;;10.43;2.20;;;;;;;12.73;93.40;99350.31;5067742;28;20044;-78
2023/03/31 08:59:34;;;;;;;10.80;1.98;;;;;;;12.87;93.08;99355.59;5066176;28;20037;-78
2023/03/31 09:02:33;;;;;;;9.73;2.13;;;;;;;12.96;92.65;99359.44;5071980;28;20037;-78
2023/03/31 09:05:23;;;;;;;11.45;2.30;;;;;;;13.00;92.51;99362.75;5072182;28;20037;-77
2023/03/31 09:08:12;;;;;;;8.18;2.50;;;;;;;13.01;91.79;99352.06;5074866;28;20041;-77
2023/03/31 09:11:07;;;;;;;11.48;2.65;;;;;;;13.04;91.97;99351.88;5074084;28;20053;-77
2023/03/31 09:14:12;;;;;;;9.85;1.98;;;;;;;13.08;91.93;99351.66;5074293;28;20047;-77
2023/03/31 09:17:18;;;;;;;10.63;2.28;;;;;;;13.11;91.89;99349.69;5073274;28;20060;-77
2023/03/31 09:19:57;;;;;;;7.65;2.05;;;;;;;13.14;92.26;99346.81;5048502;28;20080;-77
2023/03/31 09:22:32;;;;;;;8.40;1.95;;;;;;;13.18;91.82;99344.81;5074216;28;20853;-76
2023/03/31 09:25:07;;;;;;;11.18;2.13;;;;;;;13.28;91.66;99343.25;5073081;28;20045;-76
2023/03/31 09:27:36;;;;;;;11.13;2.20;;;;;;;13.32;91.23;99338.66;5066778;28;20495;-76
2023/03/31 09:30:25;;;;;;;9.40;2.50;;;;;;;13.41;90.83;99340.72;5073181;28;20540;-77
2023/03/31 09:33:13;;;;;;;11.63;2.78;;;;;;;13.57;89.95;99334.38;5073595;28;20136;-77
2023/03/31 09:35:40;;;;;;;9.43;2.20;;;;;;;13.66;88.47;99342.56;5069297;28;20045;-77
2023/03/31 09:38:12;;;;;;;10.90;2.15;;;;;;;13.68;85.60;99337.16;5073926;28;20045;-77
2023/03/31 09:40:41;;;;;;;11.65;2.50;;;;;;;13.66;85.62;99331.13;5073542;28;20051;-77
2023/03/31 09:43:22;;;;;;;12.55;2.10;;;;;;;13.68;85.92;99334.50;5053114;28;20058;-77
2023/03/31 09:45:50;;;;;;;15.63;2.53;;;;;;;13.70;85.94;99335.28;5058546;28;20052;-77
2023/03/31 09:48:39;;;;;;;10.70;1.92;;;;;;;13.81;85.74;99326.59;5069207;28;20498;-78
2023/03/31 09:51:22;;;;;;;8.40;2.33;;;;;;;13.96;84.27;99340.59;5074585;28;20964;-78
2023/03/31 09:54:28;;;;;;;12.77;2.03;;;;;;;14.09;83.54;99322.06;5073844;28;20104;-78
2023/03/31 09:56:55;;;;;;;9.50;2.28;;;;;;;14.20;82.38;99316.84;5057300;28;20085;-79
2023/03/31 09:59:34;;;;;;;14.60;2.65;;;;;;;14.31;81.88;99309.94;5089211;28;20047;-78
2023/03/31 10:02:33;;;;;;;14.50;2.47;;;;;;;14.45;79.71;99309.81;5075373;28;21031;-78
2023/03/31 10:05:02;;;;;;;12.52;2.53;;;;;;;14.60;80.06;99313.19;5068369;28;20048;-79
2023/03/31 10:07:30;;;;;;;10.60;2.17;;;;;;;14.75;80.81;99314.75;5085860;28;21027;-78
2023/03/31 10:09:57;;;;;;;11.65;2.28;;;;;;;14.91;79.82;99309.19;5089437;28;20106;-79
2023/03/31 10:12:29;;;;;;;11.65;2.10;;;;;;;15.05;77.67;99304.69;5090055;28;20052;-79
2023/03/31 10:15:27;;;;;;;10.60;2.25;;;;;;;15.12;76.64;99313.06;5052987;28;20047;-79
2023/03/31 10:17:58;;;;;;;8.75;1.73;;;;;;;15.09;75.73;99308.81;5048732;28;20104;-79
2023/03/31 10:20:36;;;;;;;11.90;2.60;;;;;;;15.02;74.98;99299.59;5068756;28;20155;-79
2023/03/31 10:23:29;;;;;;;11.68;2.20;;;;;;;14.91;74.67;99303.88;5087050;28;20033;-79
2023/03/31 10:25:59;;;;;;;10.60;1.90;;;;;;;14.86;75.98;99306.03;5089596;28;20047;-78
2023/03/31 10:28:32;;;;;;;10.52;2.13;;;;;;;14.85;75.36;99296.38;5085168;28;20049;-78
2023/03/31 10:31:02;;;;;;;10.27;1.77;;;;;;;14.82;74.16;99299.25;5068611;28;20037;-78
2023/03/31 10:33:33;;;;;;;11.23;1.90;;;;;;;14.78;73.79;99305.75;5068781;28;20106;-78
2023/03/31 10:36:18;;;;;;;9.63;2.00;;;;;;;14.77;74.30;99298.75;5065419;28;20041;-80
2023/03/31 10:38:48;;;;;;;9.98;2.35;;;;;;;14.80;72.56;99292.38;5069289;28;20112;-78
2023/03/31 10:41:23;;;;;;;9.15;1.75;;;;;;;14.81;73.60;99304.69;5070420;28;20091;-77
2023/03/31 10:43:54;;;;;;;8.95;1.63;;;;;;;14.84;73.90;99291.19;5069750;28;20140;-79
2023/03/31 10:46:51;;;;;;;6.85;1.60;;;;;;;14.84;73.28;99289.38;5069136;28;20041;-79
2023/03/31 10:49:21;;;;;;;7.43;1.80;;;;;;;14.81;74.51;99288.75;5067387;28;20044;-78
2023/03/31 10:51:55;;;;;;;9.90;1.90;;;;;;;14.87;71.57;99280.34;5069409;28;20469;-78
2023/03/31 10:54:23;;;;;;;6.88;1.50;;;;;;;14.88;72.43;99288.22;5069224;28;20044;-78
2023/03/31 10:57:05;;;;;;;12.32;1.77;;;;;;;14.93;71.50;99276.41;5069150;28;20045;-79
2023/03/31 11:00:19;;;;;;;8.07;1.60;;;;;;;14.91;71.12;99282.66;5067950;28;20045;-79
2023/03/31 11:03:09;;;;;;;6.30;1.67;;;;;;;14.99;72.28;99281.28;5068863;28;20123;-78
2023/03/31 11:06:15;;;;;;;8.93;1.52;;;;;;;15.20;72.32;99271.72;5067999;28;20040;-79
2023/03/31 11:09:11;;;;;;;9.77;1.98;;;;;;;15.39;71.63;99267.69;5067182;28;20039;-79
2023/03/31 11:12:25;;;;;;;7.22;1.30;;;;;;;15.53;71.12;99270.13;5066051;28;20532;-78
2023/03/31 11:14:52;;;;;;;7.40;1.60;;;;;;;15.69;69.57;99266.31;5059919;28;20041;-79
2023/03/31 11:18:07;;;;;;;5.88;1.45;;;;;;;15.78;68.92;99264.72;5068691;28;20048;-79
2023/03/31 11:21:29;;;;;;;6.82;1.52;;;;;;;15.81;69.15;99261.84;5066559;28;20053;-80
2023/03/31 11:24:14;;;;;;;6.03;1.50;;;;;;;15.81;68.90;99265.38;5068574;28;20045;-78
2023/03/31 11:26:57;;;;;;;7.15;1.75;;;;;;;15.83;69.22;99257.28;5069130;28;20126;-79
2023/03/31 11:29:49;;;;;;;7.15;1.50;;;;;;;16.01;69.06;99260.34;5068935;28;20124;-80
2023/03/31 11:32:52;;;;;;;8.65;1.60;;;;;;;16.12;69.95;99255.03;5068097;28;20068;-79
2023/03/31 11:35:44;;;;;;;7.05;1.30;;;;;;;16.32;69.73;99255.28;5086582;28;20044;-79
2023/03/31 11:38:34;;;;;;;8.95;1.85;;;;;;;16.45;69.30;99247.97;5088101;28;20075;-78
2023/03/31 11:41:09;;;;;;;10.35;1.88;;;;;;;16.56;68.05;99246.28;5080989;28;20044;-78
2023/03/31 11:43:49;;;;;;;9.25;2.00;;;;;;;16.52;67.09;99243.00;5068816;28;20053;-79
2023/03/31 11:46:31;;;;;;;7.80;1.67;;;;;;;16.30;67.16;99244.72;5066487;28;20072;-78
2023/03/31 11:49:10;;;;;;;7.53;1.52;;;;;;;16.01;67.05;99243.53;5067307;28;20041;-78
2023/03/31 11:52:05;;;;;;;9.82;2.20;;;;;;;15.74;66.70;99242.03;5068074;28;20049;-79
2023/03/31 11:54:51;;;;;;;8.98;1.98;;;;;;;15.57;68.06;99240.69;5056895;28;20045;-79
2023/03/31 11:57:32;;;;;;;9.98;1.70;;;;;;;15.57;69.17;99232.72;5067780;28;20033;-77
2023/03/31 12:00:15;;;;;;;9.65;2.45;;;;;;;15.64;68.95;99237.44;5066229;28;20033;-78
2023/03/31 12:03:11;;;;;;;9.13;2.38;;;;;;;15.72;68.74;99231.50;5066104;28;20041;-78
2023/03/31 12:05:46;;;;;;;11.52;2.08;;;;;;;15.82;68.47;99221.88;5067084;28;20484;-78
2023/03/31 12:08:28;;;;;;;12.48;2.08;;;;;;;15.97;68.26;99230.47;5066797;28;20049;-79